sensor_id;sensor_type;location;lat;lon;timestamp;P1;durP1;ratioP1;P2;durP2;ratioP2
14858;SDS011;7521;51.700;6.874;2022-12-18T00:02:30;68.07;;;27.83;;
14858;SDS011;7521;51.700;6.874;2022-12-18T00:05:35;61.90;;;25.23;;
14858;SDS011;7521;51.700;6.874;2022-12-18T00:08:41;67.23;;;27.90;;
14858;SDS011;7521;51.700;6.874;2022-12-18T00:11:46;63.77;;;26.00;;
14858;SDS011;7521;51.700;6.874;2022-12-18T00:14:51;62.90;;;25.60;;
14858;SDS011;7521;51.700;6.874;2022-12-18T00:17:56;65.15;;;26.20;;
14858;SDS011;7521;51.700;6.874;2022-12-18T00:21:02;62.57;;;27.40;;
14858;SDS011;7521;51.700;6.874;2022-12-18T00:24:08;64.27;;;26.93;;
14858;SDS011;7521;51.700;6.874;2022-12-18T00:27:14;82.73;;;27.20;;
14858;SDS011;7521;51.700;6.874;2022-12-18T00:30:19;79.00;;;30.90;;
14858;SDS011;7521;51.700;6.874;2022-12-18T00:33:24;71.97;;;30.97;;
14858;SDS011;7521;51.700;6.874;2022-12-18T00:36:31;76.00;;;29.20;;
14858;SDS011;7521;51.700;6.874;2022-12-18T00:39:36;70.50;;;26.93;;
14858;SDS011;7521;51.700;6.874;2022-12-18T00:42:41;76.90;;;26.70;;
14858;SDS011;7521;51.700;6.874;2022-12-18T00:46:02;71.67;;;27.73;;
14858;SDS011;7521;51.700;6.874;2022-12-18T00:49:07;64.93;;;25.47;;
14858;SDS011;7521;51.700;6.874;2022-12-18T00:52:12;69.50;;;28.30;;
14858;SDS011;7521;51.700;6.874;2022-12-18T00:55:18;64.82;;;26.13;;
14858;SDS011;7521;51.700;6.874;2022-12-18T00:58:23;59.60;;;25.23;;
14858;SDS011;7521;51.700;6.874;2022-12-18T01:01:28;64.00;;;26.00;;
14858;SDS011;7521;51.700;6.874;2022-12-18T01:04:33;69.00;;;27.00;;
14858;SDS011;7521;51.700;6.874;2022-12-18T01:07:39;57.87;;;25.60;;
14858;SDS011;7521;51.700;6.874;2022-12-18T01:10:44;62.80;;;26.30;;
14858;SDS011;7521;51.700;6.874;2022-12-18T01:13:49;58.72;;;25.00;;
14858;SDS011;7521;51.700;6.874;2022-12-18T01:16:54;65.13;;;26.15;;
14858;SDS011;7521;51.700;6.874;2022-12-18T01:19:59;70.30;;;26.30;;
14858;SDS011;7521;51.700;6.874;2022-12-18T01:23:05;64.78;;;27.80;;
14858;SDS011;7521;51.700;6.874;2022-12-18T01:26:11;67.85;;;26.63;;
14858;SDS011;7521;51.700;6.874;2022-12-18T01:29:16;64.80;;;25.00;;
14858;SDS011;7521;51.700;6.874;2022-12-18T01:32:22;67.03;;;24.20;;
14858;SDS011;7521;51.700;6.874;2022-12-18T01:35:27;64.25;;;25.42;;
14858;SDS011;7521;51.700;6.874;2022-12-18T01:38:32;65.70;;;26.73;;
14858;SDS011;7521;51.700;6.874;2022-12-18T01:41:37;65.45;;;25.00;;
14858;SDS011;7521;51.700;6.874;2022-12-18T01:48:06;65.05;;;24.85;;
14858;SDS011;7521;51.700;6.874;2022-12-18T01:51:13;59.80;;;24.33;;
14858;SDS011;7521;51.700;6.874;2022-12-18T01:54:19;65.03;;;24.80;;
14858;SDS011;7521;51.700;6.874;2022-12-18T01:57:24;72.03;;;26.42;;
14858;SDS011;7521;51.700;6.874;2022-12-18T02:00:29;60.50;;;24.23;;
14858;SDS011;7521;51.700;6.874;2022-12-18T02:03:35;67.83;;;25.63;;
14858;SDS011;7521;51.700;6.874;2022-12-18T02:06:40;59.53;;;24.73;;
14858;SDS011;7521;51.700;6.874;2022-12-18T02:13:14;62.20;;;23.70;;
14858;SDS011;7521;51.700;6.874;2022-12-18T02:19:44;64.17;;;24.20;;
14858;SDS011;7521;51.700;6.874;2022-12-18T02:29:06;68.90;;;25.17;;
14858;SDS011;7521;51.700;6.874;2022-12-18T02:32:20;56.00;;;23.77;;
14858;SDS011;7521;51.700;6.874;2022-12-18T02:35:27;66.10;;;23.67;;
14858;SDS011;7521;51.700;6.874;2022-12-18T02:38:34;68.37;;;24.77;;
14858;SDS011;7521;51.700;6.874;2022-12-18T02:41:39;59.77;;;23.30;;
14858;SDS011;7521;51.700;6.874;2022-12-18T02:44:46;64.30;;;24.97;;
14858;SDS011;7521;51.700;6.874;2022-12-18T02:47:51;62.40;;;24.03;;
14858;SDS011;7521;51.700;6.874;2022-12-18T02:51:02;66.85;;;26.38;;
14858;SDS011;7521;51.700;6.874;2022-12-18T02:54:10;65.00;;;24.93;;
14858;SDS011;7521;51.700;6.874;2022-12-18T03:00:35;59.10;;;24.83;;
14858;SDS011;7521;51.700;6.874;2022-12-18T03:03:59;55.00;;;22.80;;
14858;SDS011;7521;51.700;6.874;2022-12-18T03:07:08;52.33;;;22.87;;
14858;SDS011;7521;51.700;6.874;2022-12-18T03:10:15;56.20;;;23.80;;
14858;SDS011;7521;51.700;6.874;2022-12-18T03:13:23;52.83;;;23.17;;
14858;SDS011;7521;51.700;6.874;2022-12-18T03:16:31;64.40;;;24.43;;
14858;SDS011;7521;51.700;6.874;2022-12-18T03:19:36;61.27;;;23.57;;
14858;SDS011;7521;51.700;6.874;2022-12-18T03:22:44;59.60;;;23.33;;
14858;SDS011;7521;51.700;6.874;2022-12-18T03:25:52;63.97;;;24.20;;
14858;SDS011;7521;51.700;6.874;2022-12-18T03:29:00;62.63;;;24.17;;
14858;SDS011;7521;51.700;6.874;2022-12-18T03:32:10;55.47;;;22.73;;
14858;SDS011;7521;51.700;6.874;2022-12-18T03:35:29;60.87;;;21.80;;
14858;SDS011;7521;51.700;6.874;2022-12-18T03:38:35;51.30;;;22.80;;
14858;SDS011;7521;51.700;6.874;2022-12-18T03:41:44;50.20;;;23.08;;
14858;SDS011;7521;51.700;6.874;2022-12-18T03:47:59;56.87;;;22.17;;
14858;SDS011;7521;51.700;6.874;2022-12-18T03:51:07;51.43;;;21.43;;
14858;SDS011;7521;51.700;6.874;2022-12-18T03:54:13;53.37;;;20.87;;
14858;SDS011;7521;51.700;6.874;2022-12-18T03:57:22;56.53;;;22.30;;
14858;SDS011;7521;51.700;6.874;2022-12-18T04:00:29;50.73;;;20.83;;
14858;SDS011;7521;51.700;6.874;2022-12-18T04:03:35;55.30;;;22.17;;
14858;SDS011;7521;51.700;6.874;2022-12-18T04:06:41;52.70;;;21.87;;
14858;SDS011;7521;51.700;6.874;2022-12-18T04:09:47;54.33;;;21.50;;
14858;SDS011;7521;51.700;6.874;2022-12-18T04:12:55;49.00;;;20.97;;
14858;SDS011;7521;51.700;6.874;2022-12-18T04:16:00;53.17;;;22.90;;
14858;SDS011;7521;51.700;6.874;2022-12-18T04:19:06;57.23;;;21.97;;
14858;SDS011;7521;51.700;6.874;2022-12-18T04:22:11;55.25;;;22.10;;
14858;SDS011;7521;51.700;6.874;2022-12-18T04:25:16;56.88;;;22.13;;
14858;SDS011;7521;51.700;6.874;2022-12-18T04:28:22;59.03;;;22.88;;
14858;SDS011;7521;51.700;6.874;2022-12-18T04:31:27;60.40;;;23.27;;
14858;SDS011;7521;51.700;6.874;2022-12-18T04:34:32;55.72;;;22.00;;
14858;SDS011;7521;51.700;6.874;2022-12-18T04:37:37;52.90;;;21.33;;
14858;SDS011;7521;51.700;6.874;2022-12-18T04:40:42;52.13;;;22.45;;
14858;SDS011;7521;51.700;6.874;2022-12-18T04:43:48;59.20;;;22.60;;
14858;SDS011;7521;51.700;6.874;2022-12-18T04:46:53;53.30;;;21.52;;
14858;SDS011;7521;51.700;6.874;2022-12-18T04:49:58;65.57;;;22.80;;
14858;SDS011;7521;51.700;6.874;2022-12-18T04:53:03;51.30;;;21.92;;
14858;SDS011;7521;51.700;6.874;2022-12-18T04:56:12;49.63;;;21.43;;
14858;SDS011;7521;51.700;6.874;2022-12-18T04:59:18;56.87;;;22.13;;
14858;SDS011;7521;51.700;6.874;2022-12-18T05:02:23;47.35;;;21.88;;
14858;SDS011;7521;51.700;6.874;2022-12-18T05:05:28;56.53;;;21.40;;
14858;SDS011;7521;51.700;6.874;2022-12-18T05:08:33;53.38;;;22.73;;
14858;SDS011;7521;51.700;6.874;2022-12-18T05:11:38;53.03;;;21.67;;
14858;SDS011;7521;51.700;6.874;2022-12-18T05:14:44;49.10;;;20.88;;
14858;SDS011;7521;51.700;6.874;2022-12-18T05:17:49;57.43;;;22.70;;
14858;SDS011;7521;51.700;6.874;2022-12-18T05:20:54;59.42;;;22.08;;
14858;SDS011;7521;51.700;6.874;2022-12-18T05:23:59;53.27;;;21.57;;
14858;SDS011;7521;51.700;6.874;2022-12-18T05:27:04;51.13;;;21.33;;
14858;SDS011;7521;51.700;6.874;2022-12-18T05:30:10;51.42;;;21.45;;
14858;SDS011;7521;51.700;6.874;2022-12-18T05:33:16;55.30;;;21.03;;
14858;SDS011;7521;51.700;6.874;2022-12-18T05:36:21;57.87;;;21.70;;
14858;SDS011;7521;51.700;6.874;2022-12-18T05:39:26;49.97;;;22.13;;
14858;SDS011;7521;51.700;6.874;2022-12-18T05:42:31;50.73;;;20.67;;
14858;SDS011;7521;51.700;6.874;2022-12-18T05:45:37;53.75;;;21.85;;
14858;SDS011;7521;51.700;6.874;2022-12-18T05:48:43;51.13;;;21.63;;
14858;SDS011;7521;51.700;6.874;2022-12-18T05:51:48;50.87;;;20.47;;
14858;SDS011;7521;51.700;6.874;2022-12-18T05:54:54;49.83;;;20.03;;
14858;SDS011;7521;51.700;6.874;2022-12-18T05:57:59;46.43;;;20.13;;
14858;SDS011;7521;51.700;6.874;2022-12-18T06:01:09;45.45;;;18.65;;
14858;SDS011;7521;51.700;6.874;2022-12-18T06:04:14;50.60;;;19.47;;
14858;SDS011;7521;51.700;6.874;2022-12-18T06:07:19;43.17;;;19.10;;
14858;SDS011;7521;51.700;6.874;2022-12-18T06:10:24;50.75;;;20.45;;
14858;SDS011;7521;51.700;6.874;2022-12-18T06:13:30;49.67;;;20.00;;
14858;SDS011;7521;51.700;6.874;2022-12-18T06:16:35;54.10;;;21.85;;
14858;SDS011;7521;51.700;6.874;2022-12-18T06:19:40;48.20;;;19.73;;
14858;SDS011;7521;51.700;6.874;2022-12-18T06:22:45;47.83;;;20.02;;
14858;SDS011;7521;51.700;6.874;2022-12-18T06:25:50;48.80;;;19.40;;
14858;SDS011;7521;51.700;6.874;2022-12-18T06:28:55;51.70;;;20.97;;
14858;SDS011;7521;51.700;6.874;2022-12-18T06:32:01;42.70;;;18.73;;
14858;SDS011;7521;51.700;6.874;2022-12-18T06:35:06;48.15;;;20.35;;
14858;SDS011;7521;51.700;6.874;2022-12-18T06:38:11;46.93;;;19.43;;
14858;SDS011;7521;51.700;6.874;2022-12-18T06:41:18;51.33;;;19.47;;
14858;SDS011;7521;51.700;6.874;2022-12-18T06:44:23;52.33;;;20.70;;
14858;SDS011;7521;51.700;6.874;2022-12-18T06:47:28;46.13;;;19.02;;
14858;SDS011;7521;51.700;6.874;2022-12-18T06:50:34;51.95;;;21.15;;
14858;SDS011;7521;51.700;6.874;2022-12-18T06:53:39;51.10;;;20.93;;
14858;SDS011;7521;51.700;6.874;2022-12-18T06:56:45;50.83;;;19.67;;
14858;SDS011;7521;51.700;6.874;2022-12-18T06:59:50;47.47;;;20.37;;
14858;SDS011;7521;51.700;6.874;2022-12-18T07:02:55;44.45;;;17.98;;
14858;SDS011;7521;51.700;6.874;2022-12-18T07:06:00;42.53;;;18.57;;
14858;SDS011;7521;51.700;6.874;2022-12-18T07:09:06;47.23;;;20.10;;
14858;SDS011;7521;51.700;6.874;2022-12-18T07:12:11;49.53;;;19.80;;
14858;SDS011;7521;51.700;6.874;2022-12-18T07:15:16;54.20;;;21.98;;
14858;SDS011;7521;51.700;6.874;2022-12-18T07:18:21;45.70;;;21.20;;
14858;SDS011;7521;51.700;6.874;2022-12-18T07:21:26;44.88;;;19.13;;
14858;SDS011;7521;51.700;6.874;2022-12-18T07:24:32;39.73;;;17.50;;
14858;SDS011;7521;51.700;6.874;2022-12-18T07:27:38;37.60;;;16.20;;
14858;SDS011;7521;51.700;6.874;2022-12-18T07:30:43;44.72;;;17.80;;
14858;SDS011;7521;51.700;6.874;2022-12-18T07:33:48;37.28;;;18.00;;
14858;SDS011;7521;51.700;6.874;2022-12-18T07:36:54;36.47;;;16.40;;
14858;SDS011;7521;51.700;6.874;2022-12-18T07:39:59;41.20;;;19.15;;
14858;SDS011;7521;51.700;6.874;2022-12-18T07:43:04;44.37;;;18.20;;
14858;SDS011;7521;51.700;6.874;2022-12-18T07:46:10;32.95;;;15.38;;
14858;SDS011;7521;51.700;6.874;2022-12-18T07:49:15;35.93;;;15.57;;
14858;SDS011;7521;51.700;6.874;2022-12-18T07:52:20;32.60;;;14.25;;
14858;SDS011;7521;51.700;6.874;2022-12-18T07:55:26;28.57;;;14.20;;
14858;SDS011;7521;51.700;6.874;2022-12-18T07:58:31;31.38;;;14.13;;
14858;SDS011;7521;51.700;6.874;2022-12-18T08:01:37;26.83;;;13.47;;
14858;SDS011;7521;51.700;6.874;2022-12-18T08:04:42;29.45;;;14.45;;
14858;SDS011;7521;51.700;6.874;2022-12-18T08:07:47;29.40;;;15.02;;
14858;SDS011;7521;51.700;6.874;2022-12-18T08:10:52;26.48;;;13.52;;
14858;SDS011;7521;51.700;6.874;2022-12-18T08:13:58;32.40;;;14.70;;
14858;SDS011;7521;51.700;6.874;2022-12-18T08:17:03;28.75;;;13.05;;
14858;SDS011;7521;51.700;6.874;2022-12-18T08:20:08;25.75;;;13.35;;
14858;SDS011;7521;51.700;6.874;2022-12-18T08:23:13;26.37;;;13.60;;
14858;SDS011;7521;51.700;6.874;2022-12-18T08:26:19;30.13;;;14.50;;
14858;SDS011;7521;51.700;6.874;2022-12-18T08:29:24;21.77;;;12.40;;
14858;SDS011;7521;51.700;6.874;2022-12-18T08:32:29;29.52;;;13.25;;
14858;SDS011;7521;51.700;6.874;2022-12-18T08:35:35;26.50;;;12.63;;
14858;SDS011;7521;51.700;6.874;2022-12-18T08:38:41;27.83;;;13.13;;
14858;SDS011;7521;51.700;6.874;2022-12-18T08:41:46;23.67;;;13.05;;
14858;SDS011;7521;51.700;6.874;2022-12-18T08:45:12;28.77;;;15.27;;
14858;SDS011;7521;51.700;6.874;2022-12-18T08:48:17;30.10;;;14.87;;
14858;SDS011;7521;51.700;6.874;2022-12-18T08:51:22;35.77;;;14.30;;
14858;SDS011;7521;51.700;6.874;2022-12-18T08:54:28;30.23;;;16.10;;
14858;SDS011;7521;51.700;6.874;2022-12-18T08:57:33;45.00;;;22.77;;
14858;SDS011;7521;51.700;6.874;2022-12-18T09:00:38;34.67;;;18.45;;
14858;SDS011;7521;51.700;6.874;2022-12-18T09:03:46;27.60;;;15.57;;
14858;SDS011;7521;51.700;6.874;2022-12-18T09:06:54;32.90;;;16.97;;
14858;SDS011;7521;51.700;6.874;2022-12-18T09:09:59;28.10;;;14.67;;
14858;SDS011;7521;51.700;6.874;2022-12-18T09:13:05;29.37;;;16.23;;
14858;SDS011;7521;51.700;6.874;2022-12-18T09:16:10;26.85;;;15.05;;
14858;SDS011;7521;51.700;6.874;2022-12-18T09:19:15;25.23;;;13.17;;
14858;SDS011;7521;51.700;6.874;2022-12-18T09:22:20;21.60;;;12.25;;
14858;SDS011;7521;51.700;6.874;2022-12-18T09:25:25;23.38;;;12.57;;
14858;SDS011;7521;51.700;6.874;2022-12-18T09:28:32;20.97;;;12.57;;
14858;SDS011;7521;51.700;6.874;2022-12-18T09:31:38;23.30;;;12.20;;
14858;SDS011;7521;51.700;6.874;2022-12-18T09:34:43;23.30;;;12.30;;
14858;SDS011;7521;51.700;6.874;2022-12-18T09:37:48;24.17;;;12.43;;
14858;SDS011;7521;51.700;6.874;2022-12-18T09:40:54;23.75;;;14.25;;
14858;SDS011;7521;51.700;6.874;2022-12-18T09:47:27;22.40;;;12.40;;
14858;SDS011;7521;51.700;6.874;2022-12-18T09:50:34;23.47;;;12.23;;
14858;SDS011;7521;51.700;6.874;2022-12-18T09:53:40;22.97;;;11.80;;
14858;SDS011;7521;51.700;6.874;2022-12-18T09:56:46;22.47;;;12.20;;
14858;SDS011;7521;51.700;6.874;2022-12-18T09:59:54;21.33;;;11.73;;
14858;SDS011;7521;51.700;6.874;2022-12-18T10:03:01;22.90;;;12.00;;
14858;SDS011;7521;51.700;6.874;2022-12-18T10:06:14;18.43;;;10.80;;
14858;SDS011;7521;51.700;6.874;2022-12-18T10:09:26;23.30;;;11.00;;
14858;SDS011;7521;51.700;6.874;2022-12-18T10:12:32;24.23;;;13.10;;
14858;SDS011;7521;51.700;6.874;2022-12-18T10:15:45;20.80;;;12.50;;
14858;SDS011;7521;51.700;6.874;2022-12-18T10:28:21;18.43;;;11.40;;
14858;SDS011;7521;51.700;6.874;2022-12-18T10:31:28;20.73;;;10.97;;
14858;SDS011;7521;51.700;6.874;2022-12-18T10:34:33;20.92;;;10.88;;
14858;SDS011;7521;51.700;6.874;2022-12-18T10:37:38;20.57;;;11.07;;
14858;SDS011;7521;51.700;6.874;2022-12-18T10:44:28;20.43;;;11.27;;
14858;SDS011;7521;51.700;6.874;2022-12-18T10:47:33;23.90;;;11.47;;
14858;SDS011;7521;51.700;6.874;2022-12-18T10:50:39;18.53;;;10.47;;
14858;SDS011;7521;51.700;6.874;2022-12-18T10:53:50;21.03;;;12.63;;
14858;SDS011;7521;51.700;6.874;2022-12-18T11:00:26;22.23;;;12.60;;
14858;SDS011;7521;51.700;6.874;2022-12-18T11:03:34;19.30;;;12.43;;
14858;SDS011;7521;51.700;6.874;2022-12-18T11:06:52;33.67;;;16.87;;
14858;SDS011;7521;51.700;6.874;2022-12-18T11:10:03;30.90;;;17.03;;
14858;SDS011;7521;51.700;6.874;2022-12-18T11:13:10;24.60;;;13.47;;
14858;SDS011;7521;51.700;6.874;2022-12-18T11:16:19;22.97;;;13.30;;
14858;SDS011;7521;51.700;6.874;2022-12-18T11:19:29;17.80;;;11.23;;
14858;SDS011;7521;51.700;6.874;2022-12-18T11:22:36;16.17;;;10.63;;
14858;SDS011;7521;51.700;6.874;2022-12-18T11:25:50;17.53;;;10.37;;
14858;SDS011;7521;51.700;6.874;2022-12-18T11:29:08;15.67;;;9.47;;
14858;SDS011;7521;51.700;6.874;2022-12-18T11:35:26;19.20;;;9.50;;
14858;SDS011;7521;51.700;6.874;2022-12-18T11:38:36;23.17;;;13.80;;
14858;SDS011;7521;51.700;6.874;2022-12-18T11:42:28;17.97;;;11.13;;
14858;SDS011;7521;51.700;6.874;2022-12-18T11:45:27;16.77;;;9.53;;
14858;SDS011;7521;51.700;6.874;2022-12-18T11:48:34;16.43;;;10.90;;
14858;SDS011;7521;51.700;6.874;2022-12-18T11:51:43;19.13;;;11.67;;
14858;SDS011;7521;51.700;6.874;2022-12-18T11:54:53;17.93;;;11.63;;
14858;SDS011;7521;51.700;6.874;2022-12-18T12:04:53;21.27;;;11.70;;
14858;SDS011;7521;51.700;6.874;2022-12-18T12:11:31;17.13;;;10.40;;
14858;SDS011;7521;51.700;6.874;2022-12-18T12:14:44;15.57;;;9.97;;
14858;SDS011;7521;51.700;6.874;2022-12-18T12:30:24;22.88;;;12.10;;
14858;SDS011;7521;51.700;6.874;2022-12-18T12:40:17;24.90;;;13.47;;
14858;SDS011;7521;51.700;6.874;2022-12-18T12:43:28;23.60;;;12.10;;
14858;SDS011;7521;51.700;6.874;2022-12-18T12:46:36;40.00;;;26.63;;
14858;SDS011;7521;51.700;6.874;2022-12-18T12:49:46;41.47;;;26.73;;
14858;SDS011;7521;51.700;6.874;2022-12-18T12:52:53;22.37;;;14.37;;
14858;SDS011;7521;51.700;6.874;2022-12-18T12:55:59;26.80;;;15.57;;
14858;SDS011;7521;51.700;6.874;2022-12-18T13:05:48;30.50;;;18.70;;
14858;SDS011;7521;51.700;6.874;2022-12-18T13:08:59;32.23;;;20.07;;
14858;SDS011;7521;51.700;6.874;2022-12-18T13:19:18;32.27;;;22.57;;
14858;SDS011;7521;51.700;6.874;2022-12-18T13:22:22;25.80;;;17.93;;
14858;SDS011;7521;51.700;6.874;2022-12-18T13:25:32;22.40;;;14.40;;
14858;SDS011;7521;51.700;6.874;2022-12-18T13:41:27;21.10;;;13.33;;
14858;SDS011;7521;51.700;6.874;2022-12-18T13:47:42;19.47;;;13.60;;
14858;SDS011;7521;51.700;6.874;2022-12-18T13:50:48;22.73;;;14.77;;
14858;SDS011;7521;51.700;6.874;2022-12-18T13:53:55;23.30;;;13.03;;
14858;SDS011;7521;51.700;6.874;2022-12-18T13:57:02;22.00;;;13.60;;
14858;SDS011;7521;51.700;6.874;2022-12-18T14:00:25;24.00;;;14.20;;
14858;SDS011;7521;51.700;6.874;2022-12-18T14:03:30;26.97;;;16.03;;
14858;SDS011;7521;51.700;6.874;2022-12-18T14:06:36;27.23;;;16.20;;
14858;SDS011;7521;51.700;6.874;2022-12-18T14:09:49;19.70;;;12.90;;
14858;SDS011;7521;51.700;6.874;2022-12-18T14:12:55;22.30;;;13.70;;
14858;SDS011;7521;51.700;6.874;2022-12-18T14:16:01;19.57;;;12.33;;
14858;SDS011;7521;51.700;6.874;2022-12-18T14:19:09;20.63;;;12.60;;
14858;SDS011;7521;51.700;6.874;2022-12-18T14:22:18;20.53;;;12.80;;
14858;SDS011;7521;51.700;6.874;2022-12-18T14:25:25;21.33;;;12.83;;
14858;SDS011;7521;51.700;6.874;2022-12-18T14:28:31;18.27;;;12.20;;
14858;SDS011;7521;51.700;6.874;2022-12-18T14:31:36;19.33;;;12.40;;
14858;SDS011;7521;51.700;6.874;2022-12-18T14:34:41;20.85;;;11.73;;
14858;SDS011;7521;51.700;6.874;2022-12-18T14:37:46;18.23;;;11.97;;
14858;SDS011;7521;51.700;6.874;2022-12-18T14:40:53;22.40;;;12.43;;
14858;SDS011;7521;51.700;6.874;2022-12-18T14:44:04;20.87;;;12.47;;
14858;SDS011;7521;51.700;6.874;2022-12-18T14:47:13;23.57;;;11.90;;
14858;SDS011;7521;51.700;6.874;2022-12-18T14:50:19;18.50;;;12.47;;
14858;SDS011;7521;51.700;6.874;2022-12-18T14:53:30;18.77;;;11.95;;
14858;SDS011;7521;51.700;6.874;2022-12-18T14:56:37;22.33;;;13.67;;
14858;SDS011;7521;51.700;6.874;2022-12-18T14:59:47;23.23;;;13.53;;
14858;SDS011;7521;51.700;6.874;2022-12-18T15:02:53;21.70;;;12.87;;
14858;SDS011;7521;51.700;6.874;2022-12-18T15:06:14;22.10;;;13.73;;
14858;SDS011;7521;51.700;6.874;2022-12-18T15:09:23;20.20;;;13.73;;
14858;SDS011;7521;51.700;6.874;2022-12-18T15:18:42;25.80;;;14.60;;
14858;SDS011;7521;51.700;6.874;2022-12-18T15:21:50;31.37;;;16.83;;
14858;SDS011;7521;51.700;6.874;2022-12-18T15:24:55;30.20;;;16.65;;
14858;SDS011;7521;51.700;6.874;2022-12-18T15:28:01;29.93;;;16.00;;
14858;SDS011;7521;51.700;6.874;2022-12-18T15:31:20;27.73;;;16.02;;
14858;SDS011;7521;51.700;6.874;2022-12-18T15:34:26;29.80;;;16.13;;
14858;SDS011;7521;51.700;6.874;2022-12-18T15:37:31;24.87;;;15.13;;
14858;SDS011;7521;51.700;6.874;2022-12-18T15:40:36;28.70;;;16.33;;
14858;SDS011;7521;51.700;6.874;2022-12-18T15:43:42;24.42;;;15.18;;
14858;SDS011;7521;51.700;6.874;2022-12-18T15:46:47;20.00;;;14.00;;
14858;SDS011;7521;51.700;6.874;2022-12-18T15:49:52;24.08;;;13.35;;
14858;SDS011;7521;51.700;6.874;2022-12-18T15:52:57;24.70;;;15.82;;
14858;SDS011;7521;51.700;6.874;2022-12-18T15:56:04;29.47;;;17.27;;
14858;SDS011;7521;51.700;6.874;2022-12-18T15:59:28;29.43;;;16.03;;
14858;SDS011;7521;51.700;6.874;2022-12-18T16:02:33;29.43;;;16.57;;
14858;SDS011;7521;51.700;6.874;2022-12-18T16:05:39;31.93;;;18.70;;
14858;SDS011;7521;51.700;6.874;2022-12-18T16:08:44;31.08;;;16.85;;
14858;SDS011;7521;51.700;6.874;2022-12-18T16:11:50;27.10;;;16.93;;
14858;SDS011;7521;51.700;6.874;2022-12-18T16:14:55;25.67;;;15.13;;
14858;SDS011;7521;51.700;6.874;2022-12-18T16:18:00;25.90;;;16.37;;
14858;SDS011;7521;51.700;6.874;2022-12-18T16:21:07;32.63;;;19.83;;
14858;SDS011;7521;51.700;6.874;2022-12-18T16:24:14;30.60;;;17.93;;
14858;SDS011;7521;51.700;6.874;2022-12-18T16:27:20;30.03;;;16.77;;
14858;SDS011;7521;51.700;6.874;2022-12-18T16:30:29;33.53;;;18.97;;
14858;SDS011;7521;51.700;6.874;2022-12-18T16:33:37;29.50;;;19.63;;
14858;SDS011;7521;51.700;6.874;2022-12-18T16:36:42;28.37;;;18.57;;
14858;SDS011;7521;51.700;6.874;2022-12-18T16:39:47;31.80;;;20.08;;
14858;SDS011;7521;51.700;6.874;2022-12-18T16:42:58;35.80;;;22.48;;
14858;SDS011;7521;51.700;6.874;2022-12-18T16:46:17;38.13;;;23.93;;
14858;SDS011;7521;51.700;6.874;2022-12-18T16:49:22;36.07;;;23.37;;
14858;SDS011;7521;51.700;6.874;2022-12-18T16:52:28;33.33;;;21.35;;
14858;SDS011;7521;51.700;6.874;2022-12-18T16:55:34;32.03;;;20.00;;
14858;SDS011;7521;51.700;6.874;2022-12-18T16:58:39;28.67;;;18.00;;
14858;SDS011;7521;51.700;6.874;2022-12-18T17:01:44;32.73;;;19.17;;
14858;SDS011;7521;51.700;6.874;2022-12-18T17:04:51;32.55;;;19.80;;
14858;SDS011;7521;51.700;6.874;2022-12-18T17:07:57;33.10;;;19.70;;
14858;SDS011;7521;51.700;6.874;2022-12-18T17:11:03;31.42;;;19.45;;
14858;SDS011;7521;51.700;6.874;2022-12-18T17:14:09;31.87;;;19.73;;
14858;SDS011;7521;51.700;6.874;2022-12-18T17:17:16;27.67;;;17.70;;
14858;SDS011;7521;51.700;6.874;2022-12-18T17:20:21;30.67;;;18.27;;
14858;SDS011;7521;51.700;6.874;2022-12-18T17:23:27;28.00;;;18.03;;
14858;SDS011;7521;51.700;6.874;2022-12-18T17:26:32;28.97;;;17.20;;
14858;SDS011;7521;51.700;6.874;2022-12-18T17:29:37;30.73;;;17.30;;
14858;SDS011;7521;51.700;6.874;2022-12-18T17:32:42;28.60;;;17.67;;
14858;SDS011;7521;51.700;6.874;2022-12-18T17:35:48;31.90;;;18.58;;
14858;SDS011;7521;51.700;6.874;2022-12-18T17:38:54;30.70;;;17.55;;
14858;SDS011;7521;51.700;6.874;2022-12-18T17:41:59;32.93;;;18.87;;
14858;SDS011;7521;51.700;6.874;2022-12-18T17:45:05;36.27;;;17.67;;
14858;SDS011;7521;51.700;6.874;2022-12-18T17:48:11;35.03;;;20.07;;
14858;SDS011;7521;51.700;6.874;2022-12-18T17:51:17;35.77;;;20.13;;
14858;SDS011;7521;51.700;6.874;2022-12-18T17:54:22;33.60;;;18.87;;
14858;SDS011;7521;51.700;6.874;2022-12-18T17:57:27;42.05;;;24.90;;
14858;SDS011;7521;51.700;6.874;2022-12-18T18:00:32;35.90;;;20.50;;
14858;SDS011;7521;51.700;6.874;2022-12-18T18:03:37;36.20;;;19.43;;
14858;SDS011;7521;51.700;6.874;2022-12-18T18:06:42;34.67;;;19.33;;
14858;SDS011;7521;51.700;6.874;2022-12-18T18:09:48;32.05;;;19.38;;
14858;SDS011;7521;51.700;6.874;2022-12-18T18:12:53;34.33;;;19.88;;
14858;SDS011;7521;51.700;6.874;2022-12-18T18:16:17;49.50;;;23.70;;
14858;SDS011;7521;51.700;6.874;2022-12-18T18:19:22;38.75;;;21.25;;
14858;SDS011;7521;51.700;6.874;2022-12-18T18:22:28;36.27;;;18.57;;
14858;SDS011;7521;51.700;6.874;2022-12-18T18:25:35;31.60;;;19.75;;
14858;SDS011;7521;51.700;6.874;2022-12-18T18:28:40;32.80;;;19.20;;
14858;SDS011;7521;51.700;6.874;2022-12-18T18:31:45;36.07;;;19.70;;
14858;SDS011;7521;51.700;6.874;2022-12-18T18:34:50;34.03;;;19.93;;
14858;SDS011;7521;51.700;6.874;2022-12-18T18:37:56;35.00;;;19.90;;
14858;SDS011;7521;51.700;6.874;2022-12-18T18:41:01;39.50;;;21.77;;
14858;SDS011;7521;51.700;6.874;2022-12-18T18:44:07;34.37;;;18.53;;
14858;SDS011;7521;51.700;6.874;2022-12-18T18:47:13;37.53;;;19.23;;
14858;SDS011;7521;51.700;6.874;2022-12-18T18:50:18;33.70;;;18.60;;
14858;SDS011;7521;51.700;6.874;2022-12-18T18:53:23;32.28;;;17.75;;
14858;SDS011;7521;51.700;6.874;2022-12-18T18:56:29;36.77;;;19.37;;
14858;SDS011;7521;51.700;6.874;2022-12-18T18:59:35;41.77;;;20.37;;
14858;SDS011;7521;51.700;6.874;2022-12-18T19:02:40;35.95;;;19.38;;
14858;SDS011;7521;51.700;6.874;2022-12-18T19:05:49;33.40;;;18.43;;
14858;SDS011;7521;51.700;6.874;2022-12-18T19:08:54;39.00;;;19.77;;
14858;SDS011;7521;51.700;6.874;2022-12-18T19:12:00;38.67;;;20.30;;
14858;SDS011;7521;51.700;6.874;2022-12-18T19:15:23;37.77;;;19.67;;
14858;SDS011;7521;51.700;6.874;2022-12-18T19:18:29;35.03;;;19.17;;
14858;SDS011;7521;51.700;6.874;2022-12-18T19:21:34;36.77;;;19.87;;
14858;SDS011;7521;51.700;6.874;2022-12-18T19:24:39;36.63;;;19.47;;
14858;SDS011;7521;51.700;6.874;2022-12-18T19:27:45;37.08;;;19.85;;
14858;SDS011;7521;51.700;6.874;2022-12-18T19:30:53;35.53;;;19.35;;
14858;SDS011;7521;51.700;6.874;2022-12-18T19:33:59;34.53;;;19.77;;
14858;SDS011;7521;51.700;6.874;2022-12-18T19:37:04;40.53;;;20.63;;
14858;SDS011;7521;51.700;6.874;2022-12-18T19:40:09;33.97;;;19.52;;
14858;SDS011;7521;51.700;6.874;2022-12-18T19:43:14;39.83;;;19.93;;
14858;SDS011;7521;51.700;6.874;2022-12-18T19:46:20;34.00;;;18.90;;
14858;SDS011;7521;51.700;6.874;2022-12-18T19:49:26;34.37;;;19.50;;
14858;SDS011;7521;51.700;6.874;2022-12-18T19:52:31;38.73;;;20.77;;
14858;SDS011;7521;51.700;6.874;2022-12-18T19:55:41;42.57;;;22.47;;
14858;SDS011;7521;51.700;6.874;2022-12-18T19:58:46;35.77;;;19.93;;
14858;SDS011;7521;51.700;6.874;2022-12-18T20:01:52;38.27;;;20.13;;
14858;SDS011;7521;51.700;6.874;2022-12-18T20:04:58;38.27;;;20.67;;
14858;SDS011;7521;51.700;6.874;2022-12-18T20:08:03;38.60;;;21.42;;
14858;SDS011;7521;51.700;6.874;2022-12-18T20:11:08;36.57;;;20.83;;
14858;SDS011;7521;51.700;6.874;2022-12-18T20:14:14;39.33;;;21.07;;
14858;SDS011;7521;51.700;6.874;2022-12-18T20:17:19;34.77;;;19.63;;
14858;SDS011;7521;51.700;6.874;2022-12-18T20:20:24;36.60;;;19.08;;
14858;SDS011;7521;51.700;6.874;2022-12-18T20:23:30;35.90;;;21.37;;